createdAt,value
2022-08-26T00:00:32.512Z,75.00
2022-08-26T00:01:32.259Z,84.90
2022-08-26T00:02:32.307Z,87.00
2022-08-26T00:03:32.229Z,69.80
2022-08-26T00:04:32.235Z,86.60
2022-08-26T00:05:32.220Z,67.20
2022-08-26T00:06:32.216Z,68.40
2022-08-26T00:07:32.201Z,76.80
2022-08-26T00:08:32.212Z,80.00
2022-08-26T00:09:32.163Z,101.30
2022-08-26T00:10:32.153Z,81.60
2022-08-26T00:11:32.943Z,90.90
2022-08-26T00:12:37.498Z,82.50
2022-08-26T00:13:33.113Z,86.10
2022-08-26T00:14:32.085Z,86.50
2022-08-26T00:15:32.081Z,75.80
2022-08-26T00:16:32.137Z,83.50
2022-08-26T00:17:32.097Z,75.10
2022-08-26T00:18:38.700Z,84.70
2022-08-26T00:19:33.028Z,90.20
2022-08-26T00:20:32.954Z,105.00
2022-08-26T00:21:32.014Z,75.30
2022-08-26T00:22:31.987Z,96.50
2022-08-26T00:23:31.969Z,56.00
2022-08-26T00:24:31.957Z,73.20
2022-08-26T00:25:31.948Z,93.30
2022-08-26T00:26:31.929Z,88.00
2022-08-26T00:27:31.919Z,78.50
2022-08-26T00:28:31.895Z,80.90
2022-08-26T00:29:31.983Z,87.30
2022-08-26T00:30:31.893Z,77.40
2022-08-26T00:31:31.905Z,89.00
2022-08-26T00:32:31.852Z,99.70
2022-08-26T00:33:31.835Z,93.40
2022-08-26T00:34:31.821Z,91.30
2022-08-26T00:35:31.853Z,80.10
2022-08-26T00:36:31.804Z,71.50
2022-08-26T00:37:31.796Z,108.20
2022-08-26T00:38:31.772Z,81.70
2022-08-26T00:39:31.753Z,61.80
2022-08-26T00:40:31.837Z,61.90
2022-08-26T00:41:31.734Z,70.40
2022-08-26T00:42:31.724Z,76.60
2022-08-26T00:43:31.714Z,76.80
2022-08-26T00:44:32.687Z,87.10
2022-08-26T00:45:31.731Z,88.20
2022-08-26T00:46:31.688Z,64.10
2022-08-26T00:47:31.669Z,68.60
2022-08-26T00:48:31.814Z,81.60
2022-08-26T00:49:31.627Z,76.80
2022-08-26T00:50:31.610Z,75.30
2022-08-26T00:51:31.603Z,83.90
2022-08-26T00:52:31.589Z,76.60
2022-08-26T00:53:31.569Z,78.00
2022-08-26T00:54:31.599Z,63.50
2022-08-26T00:55:34.665Z,55.70
2022-08-26T00:56:32.540Z,71.90
2022-08-26T00:57:31.533Z,86.90
2022-08-26T00:58:31.500Z,78.70
2022-08-26T00:59:32.710Z,74.90
2022-08-26T01:00:31.481Z,70.10
2022-08-26T01:01:31.568Z,63.40
2022-08-26T01:02:31.494Z,72.30
2022-08-26T01:03:31.441Z,78.60
2022-08-26T01:04:31.448Z,68.70
2022-08-26T01:05:31.412Z,74.70
2022-08-26T01:06:31.421Z,78.00
2022-08-26T01:07:31.470Z,63.70
2022-08-26T01:08:31.369Z,64.00
2022-08-26T01:09:32.314Z,67.30
2022-08-26T01:10:31.379Z,82.60
2022-08-26T01:11:31.337Z,69.80
2022-08-26T01:12:31.309Z,70.20
2022-08-26T01:13:31.580Z,55.80
2022-08-26T01:14:31.296Z,78.70
2022-08-26T01:15:32.816Z,64.70
2022-08-26T01:16:31.348Z,80.50
2022-08-26T01:17:31.285Z,79.10
2022-08-26T01:18:31.298Z,83.50
2022-08-26T01:19:31.229Z,78.30
2022-08-26T01:20:31.223Z,99.90
2022-08-26T01:21:31.209Z,85.80
2022-08-26T01:22:31.190Z,65.90
2022-08-26T01:23:31.171Z,94.10
2022-08-26T01:24:31.185Z,82.10
2022-08-26T01:25:32.102Z,74.00
2022-08-26T01:26:31.151Z,69.40
2022-08-26T01:27:32.396Z,86.50
2022-08-26T01:28:31.102Z,78.70
2022-08-26T01:29:31.106Z,72.50
2022-08-26T01:30:31.077Z,62.40
2022-08-26T01:31:31.117Z,62.50
2022-08-26T01:32:31.048Z,83.80
2022-08-26T01:33:31.042Z,82.30
2022-08-26T01:34:32.025Z,91.10
2022-08-26T01:35:31.015Z,73.90
2022-08-26T01:36:31.001Z,71.30
2022-08-26T01:37:30.994Z,69.70
2022-08-26T01:38:30.984Z,77.30
2022-08-26T01:39:30.965Z,81.40
2022-08-26T01:40:31.009Z,95.30
2022-08-26T01:41:30.936Z,81.70
2022-08-26T01:42:30.916Z,85.50
2022-08-26T01:43:30.896Z,82.30
2022-08-26T01:44:31.837Z,83.50
2022-08-26T01:45:30.935Z,84.00
2022-08-26T01:46:30.865Z,62.20
2022-08-26T01:47:30.851Z,74.00
2022-08-26T01:48:30.830Z,65.30
2022-08-26T01:49:31.926Z,75.50
2022-08-26T01:50:30.808Z,73.90
2022-08-26T01:51:31.590Z,75.40
2022-08-26T01:52:30.777Z,73.10
2022-08-26T01:53:30.829Z,69.60
2022-08-26T01:54:30.750Z,65.60
2022-08-26T01:55:32.989Z,76.90
2022-08-26T01:56:33.408Z,93.70
2022-08-26T01:57:31.713Z,75.00
2022-08-26T01:58:30.711Z,69.50
2022-08-26T01:59:30.699Z,67.00
2022-08-26T02:00:30.688Z,65.80
2022-08-26T02:01:30.673Z,73.70
2022-08-26T02:02:30.643Z,80.00
2022-08-26T02:03:30.657Z,84.70
2022-08-26T02:04:31.047Z,105.00
2022-08-26T02:05:30.625Z,77.60
2022-08-26T02:06:30.595Z,76.30
2022-08-26T02:07:30.575Z,86.30
2022-08-26T02:08:30.583Z,55.70
2022-08-26T02:09:30.814Z,91.20
2022-08-26T02:10:30.554Z,90.00
2022-08-26T02:11:30.538Z,90.90
2022-08-26T02:12:30.526Z,75.40
2022-08-26T02:13:30.522Z,62.70
2022-08-26T02:14:30.514Z,75.50
2022-08-26T02:15:30.479Z,73.20
2022-08-26T02:16:30.494Z,80.50
2022-08-26T02:17:30.461Z,67.70
2022-08-26T02:18:30.444Z,68.20
2022-08-26T02:19:30.430Z,66.70
2022-08-26T02:20:30.458Z,79.40
2022-08-26T02:21:30.400Z,73.40
2022-08-26T02:22:30.393Z,72.70
2022-08-26T02:23:30.372Z,91.50
2022-08-26T02:24:30.362Z,87.40
2022-08-26T02:25:30.353Z,80.80
2022-08-26T02:26:30.358Z,79.00
2022-08-26T02:27:32.307Z,60.10
2022-08-26T02:28:30.323Z,84.70
2022-08-26T02:29:30.294Z,80.30
2022-08-26T02:30:30.302Z,87.60
2022-08-26T02:31:30.311Z,77.60
2022-08-26T02:32:30.249Z,69.30
2022-08-26T02:33:30.250Z,84.20
2022-08-26T02:34:31.205Z,76.60
2022-08-26T02:35:31.175Z,83.40
2022-08-26T02:36:31.138Z,83.40
2022-08-26T02:37:30.196Z,78.10
2022-08-26T02:38:30.169Z,88.70
2022-08-26T02:39:30.157Z,88.50
2022-08-26T02:40:31.144Z,71.70
2022-08-26T02:41:30.128Z,87.20
2022-08-26T02:42:30.120Z,84.80
2022-08-26T02:43:32.705Z,74.30
2022-08-26T02:44:30.089Z,78.30
2022-08-26T02:45:30.117Z,78.10
2022-08-26T02:46:30.329Z,82.90
2022-08-26T02:47:30.051Z,76.70
2022-08-26T02:48:30.992Z,71.00
2022-08-26T02:49:30.048Z,68.90
2022-08-26T02:50:30.011Z,67.80
2022-08-26T02:51:30.012Z,76.00
2022-08-26T02:52:29.981Z,71.00
2022-08-26T02:53:31.681Z,66.80
2022-08-26T02:54:29.971Z,73.20
2022-08-26T02:55:30.224Z,67.70
2022-08-26T02:56:29.932Z,86.20
2022-08-26T02:57:30.873Z,82.90
2022-08-26T02:58:29.900Z,58.00
2022-08-26T02:59:30.863Z,73.60
2022-08-26T03:00:29.934Z,71.60
2022-08-26T03:01:29.963Z,75.80
2022-08-26T03:02:29.852Z,72.90
2022-08-26T03:03:29.846Z,73.30
2022-08-26T03:04:30.814Z,68.80
2022-08-26T03:05:29.826Z,65.50
2022-08-26T03:06:29.790Z,69.10
2022-08-26T03:07:29.788Z,93.80
2022-08-26T03:08:29.768Z,65.60
2022-08-26T03:09:29.768Z,69.00
2022-08-26T03:10:29.738Z,80.60
2022-08-26T03:11:33.143Z,81.10
2022-08-26T03:12:30.664Z,77.40
2022-08-26T03:13:30.663Z,67.80
2022-08-26T03:14:29.698Z,54.20
2022-08-26T03:15:29.683Z,58.30
2022-08-26T03:16:32.306Z,68.80
2022-08-26T03:17:29.891Z,67.10
2022-08-26T03:18:29.631Z,80.00
2022-08-26T03:19:30.594Z,42.70
2022-08-26T03:20:29.622Z,94.70
2022-08-26T03:21:29.607Z,68.30
2022-08-26T03:22:29.598Z,71.20
2022-08-26T03:23:30.528Z,75.60
2022-08-26T03:24:29.575Z,68.60
2022-08-26T03:25:29.569Z,73.40
2022-08-26T03:26:29.562Z,70.70
2022-08-26T03:27:29.522Z,62.50
2022-08-26T03:28:29.505Z,74.20
2022-08-26T03:29:30.707Z,70.00
2022-08-26T03:30:29.476Z,62.30
2022-08-26T03:31:29.599Z,78.60
2022-08-26T03:32:29.445Z,80.90
2022-08-26T03:33:29.437Z,72.00
2022-08-26T03:34:29.438Z,66.70
2022-08-26T03:35:29.410Z,54.70
2022-08-26T03:36:29.389Z,71.20
2022-08-26T03:37:29.378Z,81.70
2022-08-26T03:38:29.378Z,60.50
2022-08-26T03:39:31.413Z,61.90
2022-08-26T03:40:29.381Z,78.30
2022-08-26T03:41:29.332Z,70.20
2022-08-26T03:42:29.321Z,70.30
2022-08-26T03:43:29.303Z,55.20
2022-08-26T03:44:29.325Z,59.00
2022-08-26T03:45:29.290Z,56.70
2022-08-26T03:46:29.328Z,50.50
2022-08-26T03:47:29.252Z,57.10
2022-08-26T03:48:29.232Z,74.40
2022-08-26T03:49:29.249Z,71.60
2022-08-26T03:50:29.207Z,56.40
2022-08-26T03:51:29.201Z,59.00
2022-08-26T03:52:29.183Z,65.00
2022-08-26T03:53:29.174Z,72.90
2022-08-26T03:54:29.174Z,58.00
2022-08-26T03:55:29.144Z,72.40
2022-08-26T03:56:29.125Z,71.90
2022-08-26T03:57:29.116Z,76.70
2022-08-26T03:58:29.101Z,72.60
2022-08-26T03:59:29.103Z,74.90
2022-08-26T04:00:29.084Z,56.50
2022-08-26T04:01:29.167Z,63.50
2022-08-26T04:02:29.085Z,69.30
2022-08-26T04:03:29.089Z,81.20
2022-08-26T04:04:29.038Z,60.50
2022-08-26T04:05:29.009Z,66.40
2022-08-26T04:06:28.990Z,66.60
2022-08-26T04:07:28.989Z,70.60
2022-08-26T04:08:28.969Z,59.80
2022-08-26T04:09:28.981Z,69.20
2022-08-26T04:10:29.595Z,64.30
2022-08-26T04:11:28.943Z,67.20
2022-08-26T04:12:28.944Z,66.40
2022-08-26T04:13:28.917Z,73.90
2022-08-26T04:14:28.900Z,54.50
2022-08-26T04:15:29.833Z,72.20
2022-08-26T04:16:28.922Z,68.40
2022-08-26T04:17:28.852Z,42.90
2022-08-26T04:18:33.018Z,71.20
2022-08-26T04:19:29.834Z,79.10
2022-08-26T04:20:28.813Z,68.80
2022-08-26T04:21:28.795Z,77.20
2022-08-26T04:22:29.386Z,70.90
2022-08-26T04:23:28.795Z,62.20
2022-08-26T04:24:28.763Z,60.90
2022-08-26T04:25:28.745Z,61.60
2022-08-26T04:26:28.725Z,76.80
2022-08-26T04:27:28.726Z,53.00
2022-08-26T04:28:28.696Z,60.40
2022-08-26T04:29:28.697Z,72.20
2022-08-26T04:30:28.681Z,73.00
2022-08-26T04:31:28.712Z,77.80
2022-08-26T04:32:28.650Z,79.80
2022-08-26T04:33:32.320Z,65.20
2022-08-26T04:34:28.965Z,86.00
2022-08-26T04:35:28.609Z,82.50
2022-08-26T04:36:28.599Z,82.20
2022-08-26T04:37:28.580Z,99.10
2022-08-26T04:38:28.583Z,64.90
2022-08-26T04:39:28.550Z,63.80
2022-08-26T04:40:28.585Z,61.00
2022-08-26T04:41:28.631Z,68.60
2022-08-26T04:42:28.522Z,62.30
2022-08-26T04:43:28.527Z,62.00
2022-08-26T04:44:28.501Z,62.60
2022-08-26T04:45:28.474Z,76.30
2022-08-26T04:46:28.500Z,72.50
2022-08-26T04:47:32.240Z,58.80
2022-08-26T04:48:28.564Z,66.40
2022-08-26T04:49:28.414Z,74.00
2022-08-26T04:50:29.435Z,99.80
2022-08-26T04:51:28.392Z,79.40
2022-08-26T04:52:28.385Z,53.20
2022-08-26T04:53:28.376Z,51.10
2022-08-26T04:54:28.367Z,58.80
2022-08-26T04:55:38.302Z,64.80
2022-08-26T04:56:29.338Z,74.00
2022-08-26T04:57:28.321Z,59.60
2022-08-26T04:58:28.319Z,74.50
2022-08-26T04:59:28.298Z,72.40
2022-08-26T05:00:28.285Z,63.60
2022-08-26T05:01:28.325Z,67.60
2022-08-26T05:02:28.280Z,78.20
2022-08-26T05:03:30.543Z,61.40
2022-08-26T05:04:28.255Z,78.80
2022-08-26T05:05:28.210Z,57.50
2022-08-26T05:06:28.201Z,61.80
2022-08-26T05:07:28.181Z,56.30
2022-08-26T05:08:28.181Z,64.00
2022-08-26T05:09:28.152Z,59.80
2022-08-26T05:10:28.153Z,63.10
2022-08-26T05:11:28.129Z,64.80
2022-08-26T05:12:28.122Z,86.60
2022-08-26T05:13:28.123Z,78.50
2022-08-26T05:14:28.105Z,88.90
2022-08-26T05:15:28.074Z,67.30
2022-08-26T05:16:28.099Z,87.40
2022-08-26T05:17:28.056Z,78.20
2022-08-26T05:18:28.056Z,60.40
2022-08-26T05:19:28.072Z,65.90
2022-08-26T05:20:28.023Z,86.70
2022-08-26T05:21:27.996Z,60.10
2022-08-26T05:22:27.986Z,59.60
2022-08-26T05:23:27.976Z,58.50
2022-08-26T05:24:28.047Z,70.50
2022-08-26T05:25:27.947Z,82.80
2022-08-26T05:26:27.937Z,69.80
2022-08-26T05:27:27.916Z,56.60
2022-08-26T05:28:27.919Z,53.50
2022-08-26T05:29:27.890Z,70.70
2022-08-26T05:30:27.887Z,47.80
2022-08-26T05:31:27.914Z,60.00
2022-08-26T05:32:27.856Z,65.10
2022-08-26T05:33:27.849Z,72.10
2022-08-26T05:34:30.346Z,64.10
2022-08-26T05:35:27.812Z,77.00
2022-08-26T05:36:27.807Z,89.70
2022-08-26T05:37:27.782Z,62.90
2022-08-26T05:38:30.160Z,75.10
2022-08-26T05:39:27.762Z,70.00
2022-08-26T05:40:27.819Z,84.70
2022-08-26T05:41:27.730Z,79.60
2022-08-26T05:42:28.722Z,74.30
2022-08-26T05:43:27.733Z,86.50
2022-08-26T05:44:27.704Z,93.90
2022-08-26T05:45:27.675Z,88.60
2022-08-26T05:46:27.711Z,87.20
2022-08-26T05:47:28.692Z,80.10
2022-08-26T05:48:27.657Z,83.00
2022-08-26T05:49:27.626Z,87.70
2022-08-26T05:50:27.627Z,86.10
2022-08-26T05:51:27.656Z,85.20
2022-08-26T05:52:27.607Z,82.50
2022-08-26T05:53:27.578Z,73.70
2022-08-26T05:54:27.568Z,74.40
2022-08-26T05:55:27.548Z,85.50
2022-08-26T05:56:27.724Z,72.90
2022-08-26T05:57:27.514Z,85.90
2022-08-26T05:58:27.522Z,80.00
2022-08-26T05:59:27.512Z,74.00
2022-08-26T06:00:27.547Z,74.90
2022-08-26T06:01:27.556Z,90.60
2022-08-26T06:02:27.484Z,90.90
2022-08-26T06:03:27.448Z,88.20
2022-08-26T06:04:29.597Z,75.90
2022-08-26T06:05:27.412Z,78.00
2022-08-26T06:06:28.534Z,79.90
2022-08-26T06:07:27.394Z,77.40
2022-08-26T06:08:27.383Z,58.40
2022-08-26T06:09:27.361Z,92.10
2022-08-26T06:10:34.431Z,77.10
2022-08-26T06:11:28.332Z,80.40
2022-08-26T06:12:27.356Z,86.90
2022-08-26T06:13:27.322Z,76.90
2022-08-26T06:14:27.297Z,72.20
2022-08-26T06:15:27.307Z,77.40
2022-08-26T06:16:27.296Z,78.80
2022-08-26T06:17:27.256Z,75.70
2022-08-26T06:18:27.248Z,84.20
2022-08-26T06:19:32.723Z,63.30
2022-08-26T06:20:28.239Z,76.50
2022-08-26T06:21:27.198Z,79.70
2022-08-26T06:22:27.203Z,73.80
2022-08-26T06:23:27.180Z,76.90
2022-08-26T06:24:27.519Z,76.70
2022-08-26T06:25:27.151Z,78.70
2022-08-26T06:26:27.140Z,81.30
2022-08-26T06:27:30.654Z,76.50
2022-08-26T06:28:28.141Z,64.20
2022-08-26T06:29:27.092Z,82.20
2022-08-26T06:30:27.082Z,80.20
2022-08-26T06:31:27.114Z,83.60
2022-08-26T06:32:28.154Z,78.80
2022-08-26T06:33:27.048Z,87.20
2022-08-26T06:34:30.579Z,82.60
2022-08-26T06:35:27.973Z,83.80
2022-08-26T06:36:27.005Z,85.60
2022-08-26T06:37:26.999Z,64.20
2022-08-26T06:38:27.016Z,81.20
2022-08-26T06:39:26.996Z,63.00
2022-08-26T06:40:27.100Z,87.80
2022-08-26T06:41:26.926Z,69.30
2022-08-26T06:42:26.937Z,66.20
2022-08-26T06:43:26.938Z,84.60
2022-08-26T06:44:26.962Z,80.80
2022-08-26T06:45:26.874Z,69.30
2022-08-26T06:46:26.916Z,60.30
2022-08-26T06:47:26.903Z,73.70
2022-08-26T06:48:26.852Z,82.80
2022-08-26T06:49:27.782Z,54.00
2022-08-26T06:50:26.830Z,60.40
2022-08-26T06:51:26.840Z,70.10
2022-08-26T06:52:26.790Z,88.90
2022-08-26T06:53:26.781Z,86.00
2022-08-26T06:54:26.823Z,65.90
2022-08-26T06:55:26.969Z,90.90
2022-08-26T06:56:27.702Z,72.10
2022-08-26T06:57:26.732Z,77.10
2022-08-26T06:58:26.733Z,73.40
2022-08-26T06:59:26.713Z,91.00
2022-08-26T07:00:26.704Z,74.10
2022-08-26T07:01:26.716Z,84.20
2022-08-26T07:02:28.614Z,93.40
2022-08-26T07:03:26.652Z,81.50
2022-08-26T07:04:27.906Z,78.80
2022-08-26T07:05:26.616Z,76.40
2022-08-26T07:06:26.606Z,73.60
2022-08-26T07:07:26.631Z,85.00
2022-08-26T07:08:26.745Z,67.90
2022-08-26T07:09:26.587Z,71.90
2022-08-26T07:10:26.558Z,80.30
2022-08-26T07:11:26.536Z,82.50
2022-08-26T07:12:26.525Z,85.20
2022-08-26T07:13:30.751Z,79.50
2022-08-26T07:14:26.523Z,71.70
2022-08-26T07:15:31.104Z,76.00
2022-08-26T07:16:27.522Z,77.70
2022-08-26T07:17:26.490Z,72.50
2022-08-26T07:18:26.462Z,67.70
2022-08-26T07:19:29.882Z,77.90
2022-08-26T07:20:26.423Z,69.00
2022-08-26T07:21:26.403Z,84.10
2022-08-26T07:22:26.414Z,64.00
2022-08-26T07:23:26.413Z,73.50
2022-08-26T07:24:29.059Z,68.10
2022-08-26T07:25:26.605Z,78.10
2022-08-26T07:26:26.345Z,78.10
2022-08-26T07:27:26.349Z,73.90
2022-08-26T07:28:26.347Z,61.60
2022-08-26T07:29:26.295Z,56.90
2022-08-26T07:30:26.287Z,82.00
2022-08-26T07:31:26.331Z,62.80
2022-08-26T07:32:26.266Z,69.20
2022-08-26T07:33:26.254Z,75.90
2022-08-26T07:34:26.300Z,75.20
2022-08-26T07:35:26.231Z,53.50
2022-08-26T07:36:26.209Z,81.00
2022-08-26T07:37:26.202Z,76.40
2022-08-26T07:38:26.201Z,81.80
2022-08-26T07:39:26.161Z,63.70
2022-08-26T07:40:26.276Z,57.30
2022-08-26T07:41:26.177Z,75.50
2022-08-26T07:42:26.131Z,69.00
2022-08-26T07:43:26.123Z,64.00
2022-08-26T07:44:26.102Z,67.30
2022-08-26T07:45:26.082Z,66.20
2022-08-26T07:46:27.553Z,66.90
2022-08-26T07:47:26.413Z,75.80
2022-08-26T07:48:26.072Z,73.70
2022-08-26T07:49:26.098Z,60.70
2022-08-26T07:50:49.520Z,71.90
2022-08-26T07:51:27.067Z,58.30
2022-08-26T07:52:27.227Z,80.60
2022-08-26T07:53:25.996Z,63.00
2022-08-26T07:54:27.107Z,59.10
2022-08-26T07:55:25.959Z,75.60
2022-08-26T07:56:26.903Z,73.00
2022-08-26T07:57:25.929Z,62.80
2022-08-26T07:58:25.955Z,80.10
2022-08-26T07:59:25.900Z,64.40
2022-08-26T08:00:25.899Z,71.90
2022-08-26T08:01:25.931Z,77.20
2022-08-26T08:02:25.861Z,73.70
2022-08-26T08:03:25.860Z,72.70
2022-08-26T08:04:26.705Z,63.80
2022-08-26T08:05:27.278Z,59.50
2022-08-26T08:06:27.171Z,65.40
2022-08-26T08:07:44.425Z,76.60
2022-08-26T08:08:29.209Z,84.10
2022-08-26T08:09:25.785Z,74.10
2022-08-26T08:10:25.783Z,78.40
2022-08-26T08:11:25.781Z,70.70
2022-08-26T08:12:25.755Z,100.20
2022-08-26T08:13:25.723Z,76.80
2022-08-26T08:14:25.725Z,67.70
2022-08-26T08:15:25.726Z,65.70
2022-08-26T08:16:26.039Z,79.40
2022-08-26T08:17:25.672Z,61.60
2022-08-26T08:18:25.674Z,54.20
2022-08-26T08:19:28.376Z,64.90
2022-08-26T08:20:26.638Z,69.40
2022-08-26T08:21:25.607Z,81.90
2022-08-26T08:22:25.598Z,78.30
2022-08-26T08:23:25.625Z,74.80
2022-08-26T08:24:25.579Z,65.90
2022-08-26T08:25:25.575Z,55.60
2022-08-26T08:26:25.552Z,71.60
2022-08-26T08:27:25.529Z,67.10
2022-08-26T08:28:25.540Z,87.90
2022-08-26T08:29:25.511Z,64.40
2022-08-26T08:30:25.491Z,70.40
2022-08-26T08:31:54.548Z,70.70
2022-08-26T08:32:26.502Z,85.40
2022-08-26T08:33:25.452Z,78.90
2022-08-26T08:34:25.737Z,82.70
2022-08-26T08:35:25.448Z,64.10
2022-08-26T08:36:25.419Z,73.20
2022-08-26T08:37:26.434Z,85.20
2022-08-26T08:38:25.394Z,78.30
2022-08-26T08:39:25.375Z,65.30
2022-08-26T08:40:25.389Z,80.10
2022-08-26T08:41:25.370Z,71.70
2022-08-26T08:42:25.358Z,66.90
2022-08-26T08:43:25.316Z,51.90
2022-08-26T08:45:25.297Z,66.80
2022-08-26T08:46:25.306Z,103.70
2022-08-26T08:47:25.279Z,80.90
2022-08-26T08:48:27.686Z,62.90
2022-08-26T08:49:25.547Z,52.50
2022-08-26T08:50:25.230Z,76.10
2022-08-26T08:51:25.220Z,66.00
2022-08-26T08:52:25.210Z,89.10
2022-08-26T08:53:25.202Z,72.80
2022-08-26T08:54:25.192Z,71.10
2022-08-26T08:55:25.172Z,82.60
2022-08-26T08:56:25.173Z,67.40
2022-08-26T08:57:25.162Z,79.00
2022-08-26T08:58:25.153Z,63.80
2022-08-26T08:59:25.114Z,59.40
2022-08-26T09:00:30.466Z,52.00
2022-08-26T09:01:26.125Z,73.70
2022-08-26T09:02:25.131Z,62.30
2022-08-26T09:03:25.106Z,58.10
2022-08-26T09:04:25.053Z,64.20
2022-08-26T09:05:25.178Z,72.40
2022-08-26T09:06:25.966Z,62.90
2022-08-26T09:07:25.024Z,54.90
2022-08-26T09:08:27.517Z,61.40
2022-08-26T09:09:24.988Z,70.50
2022-08-26T09:10:24.990Z,42.40
2022-08-26T09:11:24.968Z,77.50
2022-08-26T09:12:29.416Z,70.70
2022-08-26T09:13:27.203Z,51.90
2022-08-26T09:14:24.930Z,75.90
2022-08-26T09:15:26.387Z,48.40
2022-08-26T09:16:24.960Z,57.00
2022-08-26T09:17:24.891Z,71.00
2022-08-26T09:18:24.871Z,58.40
2022-08-26T09:19:24.856Z,59.70
2022-08-26T09:20:24.864Z,61.40
2022-08-26T09:21:25.139Z,67.40
2022-08-26T09:22:24.834Z,65.10
2022-08-26T09:23:25.191Z,58.10
2022-08-26T09:24:28.840Z,57.20
2022-08-26T09:25:24.784Z,62.00
2022-08-26T09:26:27.162Z,47.60
2022-08-26T09:27:24.747Z,69.10
2022-08-26T09:28:24.734Z,65.40
2022-08-26T09:29:24.743Z,65.30
2022-08-26T09:30:24.715Z,58.30
2022-08-26T09:31:24.774Z,66.00
2022-08-26T09:32:24.816Z,57.00
2022-08-26T09:33:24.679Z,57.00
2022-08-26T09:34:24.655Z,68.00
2022-08-26T09:35:24.649Z,71.00
2022-08-26T09:36:24.750Z,64.80
2022-08-26T09:37:24.634Z,72.70
2022-08-26T09:38:24.603Z,58.30
2022-08-26T09:39:24.594Z,58.30
2022-08-26T09:40:24.646Z,68.10
2022-08-26T09:41:24.562Z,50.10
2022-08-26T09:42:24.572Z,57.60
2022-08-26T09:43:24.556Z,57.80
2022-08-26T09:44:25.514Z,55.00
2022-08-26T09:45:25.465Z,55.00
2022-08-26T09:46:24.555Z,59.10
2022-08-26T09:47:24.516Z,68.90
2022-08-26T09:48:24.511Z,55.40
2022-08-26T09:49:24.456Z,70.90
2022-08-26T09:50:28.995Z,57.80
2022-08-26T09:51:24.447Z,82.50
2022-08-26T09:52:24.691Z,73.20
2022-08-26T09:53:28.739Z,56.90
2022-08-26T09:54:25.386Z,56.90
2022-08-26T09:55:25.379Z,44.30
2022-08-26T09:56:24.360Z,60.90
2022-08-26T09:57:24.360Z,71.20
2022-08-26T09:58:24.329Z,70.60
2022-08-26T09:59:24.320Z,53.70
2022-08-26T10:00:24.301Z,49.00
2022-08-26T10:01:24.356Z,56.90
2022-08-26T10:02:24.292Z,65.30
2022-08-26T10:03:25.223Z,83.80
2022-08-26T10:04:24.351Z,59.60
2022-08-26T10:05:24.244Z,49.20
2022-08-26T10:06:24.233Z,60.60
2022-08-26T10:07:24.234Z,66.80
2022-08-26T10:08:24.204Z,60.80
2022-08-26T10:09:24.196Z,65.60
2022-08-26T10:10:24.185Z,69.80
2022-08-26T10:11:24.166Z,51.30
2022-08-26T10:12:24.175Z,68.20
2022-08-26T10:13:24.147Z,62.30
2022-08-26T10:14:24.149Z,67.70
2022-08-26T10:15:25.068Z,66.70
2022-08-26T10:16:24.130Z,45.90
2022-08-26T10:17:24.109Z,72.50
2022-08-26T10:18:24.070Z,61.50
2022-08-26T10:19:24.093Z,60.90
2022-08-26T10:20:25.082Z,57.60
2022-08-26T10:21:24.052Z,63.00
2022-08-26T10:22:24.036Z,78.10
2022-08-26T10:23:24.012Z,66.00
2022-08-26T10:24:24.027Z,57.30
2022-08-26T10:25:24.002Z,65.70
2022-08-26T10:26:23.967Z,68.40
2022-08-26T10:27:23.974Z,69.90
2022-08-26T10:28:23.944Z,83.40
2022-08-26T10:29:23.965Z,52.50
2022-08-26T10:30:23.939Z,52.20
2022-08-26T10:31:27.534Z,67.10
2022-08-26T10:32:23.991Z,60.60
2022-08-26T10:33:23.877Z,67.00
2022-08-26T10:34:23.856Z,72.60
2022-08-26T10:35:23.897Z,78.10
2022-08-26T10:36:23.847Z,63.10
2022-08-26T10:37:23.870Z,63.90
2022-08-26T10:38:23.850Z,55.40
2022-08-26T10:39:24.759Z,53.60
2022-08-26T10:40:23.829Z,61.50
2022-08-26T10:41:23.772Z,65.90
2022-08-26T10:42:23.761Z,66.50
2022-08-26T10:43:23.756Z,69.90
2022-08-26T10:44:23.740Z,68.60
2022-08-26T10:45:23.726Z,48.90
2022-08-26T10:46:23.778Z,58.60
2022-08-26T10:47:23.694Z,60.80
2022-08-26T10:48:23.684Z,56.90
2022-08-26T10:49:23.709Z,54.50
2022-08-26T10:50:23.654Z,56.30
2022-08-26T10:51:23.664Z,47.60
2022-08-26T10:52:23.626Z,73.60
2022-08-26T10:53:25.104Z,49.80
2022-08-26T10:54:23.686Z,58.40
2022-08-26T10:55:23.597Z,63.90
2022-08-26T10:56:23.588Z,37.30
2022-08-26T10:57:23.579Z,50.40
2022-08-26T10:58:26.638Z,57.70
2022-08-26T10:59:24.497Z,50.70
2022-08-26T11:00:23.528Z,54.30
2022-08-26T11:01:24.585Z,52.60
2022-08-26T11:02:25.197Z,30.00
2022-08-26T11:03:23.501Z,44.70
2022-08-26T11:04:23.534Z,51.60
2022-08-26T11:05:23.487Z,45.20
2022-08-26T11:06:23.471Z,45.80
2022-08-26T11:07:23.443Z,55.50
2022-08-26T11:08:23.433Z,70.20
2022-08-26T11:09:25.784Z,70.00
2022-08-26T11:10:24.415Z,53.80
2022-08-26T11:11:23.385Z,40.10
2022-08-26T11:12:23.366Z,36.30
2022-08-26T11:13:23.362Z,41.60
2022-08-26T11:14:26.668Z,49.90
2022-08-26T11:15:24.976Z,53.70
2022-08-26T11:16:23.353Z,49.70
2022-08-26T11:17:23.338Z,36.30
2022-08-26T11:18:23.318Z,34.30
2022-08-26T11:19:24.576Z,47.80
2022-08-26T11:20:23.809Z,43.60
2022-08-26T11:21:23.280Z,44.00
2022-08-26T11:22:24.240Z,38.20
2022-08-26T11:23:23.243Z,38.40
2022-08-26T11:24:23.220Z,41.80
2022-08-26T11:25:27.743Z,38.90
2022-08-26T11:26:37.588Z,53.40
2022-08-26T11:27:24.423Z,47.90
2022-08-26T11:28:23.164Z,63.10
2022-08-26T11:29:23.154Z,58.50
2022-08-26T11:30:24.097Z,52.80
2022-08-26T11:31:23.208Z,68.10
2022-08-26T11:32:23.115Z,53.20
2022-08-26T11:33:23.115Z,58.10
2022-08-26T11:34:23.116Z,67.60
2022-08-26T11:35:23.074Z,57.20
2022-08-26T11:36:23.065Z,84.80
2022-08-26T11:37:23.061Z,59.10
2022-08-26T11:38:23.037Z,35.00
2022-08-26T11:39:23.044Z,36.30
2022-08-26T11:40:25.013Z,42.80
2022-08-26T11:41:23.010Z,38.20
2022-08-26T11:42:22.980Z,29.10
2022-08-26T11:43:22.981Z,44.10
2022-08-26T11:44:22.982Z,36.40
2022-08-26T11:45:23.874Z,53.90
2022-08-26T11:46:22.931Z,118.20
2022-08-26T11:47:22.943Z,202.20
2022-08-26T11:48:22.912Z,127.90
2022-08-26T11:49:22.906Z,179.10
2022-08-26T11:50:22.883Z,28.50
2022-08-26T11:51:22.876Z,43.90
2022-08-26T11:52:22.922Z,49.10
2022-08-26T11:53:22.921Z,45.50
2022-08-26T11:54:35.287Z,43.00
2022-08-26T11:55:24.240Z,33.90
2022-08-26T11:56:22.807Z,37.00
2022-08-26T11:57:22.836Z,38.30
2022-08-26T11:58:23.017Z,34.20
2022-08-26T11:59:22.813Z,37.20
2022-08-26T12:00:23.642Z,59.00
2022-08-26T12:01:22.739Z,40.80
2022-08-26T12:02:22.732Z,53.10
2022-08-26T12:03:23.022Z,45.90
2022-08-26T12:04:22.825Z,54.20
2022-08-26T12:05:22.682Z,39.20
2022-08-26T12:06:23.647Z,50.00
2022-08-26T12:07:24.190Z,62.10
2022-08-26T12:08:22.641Z,43.40
2022-08-26T12:09:22.656Z,47.70
2022-08-26T12:10:22.608Z,64.10
2022-08-26T12:11:22.603Z,41.70
2022-08-26T12:12:22.593Z,63.70
2022-08-26T12:13:22.824Z,45.90
2022-08-26T12:14:22.586Z,24.70
2022-08-26T12:15:22.557Z,34.90
2022-08-26T12:16:23.518Z,46.50
2022-08-26T12:17:22.694Z,32.50
2022-08-26T12:18:29.195Z,57.10
2022-08-26T12:19:23.523Z,42.00
2022-08-26T12:20:22.487Z,36.30
2022-08-26T12:21:22.493Z,33.00
2022-08-26T12:22:22.464Z,35.00
2022-08-26T12:23:22.459Z,28.60
2022-08-26T12:24:22.439Z,44.30
2022-08-26T12:25:22.427Z,20.60
2022-08-26T12:26:22.409Z,18.10
2022-08-26T12:27:22.389Z,19.10
2022-08-26T12:28:23.212Z,35.00
2022-08-26T12:29:27.237Z,30.60
2022-08-26T12:30:23.371Z,19.80
2022-08-26T12:31:22.388Z,16.90
2022-08-26T12:32:22.331Z,25.20
2022-08-26T12:33:23.310Z,17.00
2022-08-26T12:34:22.302Z,20.70
2022-08-26T12:35:22.284Z,15.70
2022-08-26T12:36:22.273Z,9.70
2022-08-26T12:37:22.265Z,22.10
2022-08-26T12:38:22.254Z,23.40
2022-08-26T12:39:22.242Z,27.70
2022-08-26T12:40:22.248Z,16.00
2022-08-26T12:41:22.226Z,11.80
2022-08-26T12:42:22.193Z,9.20
2022-08-26T12:43:22.196Z,17.90
2022-08-26T12:44:22.166Z,12.50
2022-08-26T12:45:22.197Z,24.50
2022-08-26T12:46:22.139Z,29.90
2022-08-26T12:47:22.148Z,14.10
2022-08-26T12:48:24.581Z,11.00
2022-08-26T12:49:22.108Z,16.10
2022-08-26T12:50:22.110Z,13.70
2022-08-26T12:51:22.100Z,17.40
2022-08-26T12:52:22.060Z,18.40
2022-08-26T12:53:23.011Z,14.00